Artesia, New Mexico
Current Conditions -  °F | °C
As of 8:51 AM on Thursday 27 Nov 2014 (Local Time) from KROW Reporting Station
Clear Clear  
Wind Chill:   Ceiling: Unl
Heat Index:   Visibility: 10mi
Dew Point: -1°   Wind: 9mph
Humidity: 56%   Direction: 160°SSE
Pressure: 30.46"   Gusts: NA
Location:  32.84°N, 104.39°W
Report Text: KROW 271551Z 16008KT 10SM CLR 07/M01 A3046 RMK AO2 SLP301 T00721011
Loading
Personal Weather Stations






























Interactive Weather Map New forecast layout! Learn more

10-Day Weather Forecast

Advertisements
Track Severe Weather on mobile